sensor_id;sensor_type;location;lat;lon;timestamp;P1;durP1;ratioP1;P2;durP2;ratioP2
72408;SDS011;60402;48.082;11.628;2023-03-24T00:02:00;5.53;;;2.67;;
72408;SDS011;60402;48.082;11.628;2023-03-24T00:04:46;4.75;;;2.35;;
72408;SDS011;60402;48.082;11.628;2023-03-24T00:07:33;4.80;;;2.42;;
72408;SDS011;60402;48.082;11.628;2023-03-24T00:10:22;5.25;;;2.20;;
72408;SDS011;60402;48.082;11.628;2023-03-24T00:13:08;7.90;;;2.50;;
72408;SDS011;60402;48.082;11.628;2023-03-24T00:15:54;5.65;;;2.60;;
72408;SDS011;60402;48.082;11.628;2023-03-24T00:18:40;5.05;;;2.50;;
72408;SDS011;60402;48.082;11.628;2023-03-24T00:21:26;6.10;;;2.55;;
72408;SDS011;60402;48.082;11.628;2023-03-24T00:24:12;5.25;;;2.33;;
72408;SDS011;60402;48.082;11.628;2023-03-24T00:26:57;6.25;;;2.60;;
72408;SDS011;60402;48.082;11.628;2023-03-24T00:29:43;6.07;;;2.58;;
72408;SDS011;60402;48.082;11.628;2023-03-24T00:32:29;5.05;;;2.38;;
72408;SDS011;60402;48.082;11.628;2023-03-24T00:35:15;4.93;;;2.42;;
72408;SDS011;60402;48.082;11.628;2023-03-24T00:38:02;4.95;;;2.22;;
72408;SDS011;60402;48.082;11.628;2023-03-24T00:40:48;4.90;;;2.47;;
72408;SDS011;60402;48.082;11.628;2023-03-24T00:43:34;6.60;;;2.83;;
72408;SDS011;60402;48.082;11.628;2023-03-24T00:46:21;5.18;;;2.40;;
72408;SDS011;60402;48.082;11.628;2023-03-24T00:49:12;5.70;;;2.40;;
72408;SDS011;60402;48.082;11.628;2023-03-24T00:51:59;6.57;;;2.78;;
72408;SDS011;60402;48.082;11.628;2023-03-24T00:54:46;5.65;;;2.38;;
72408;SDS011;60402;48.082;11.628;2023-03-24T00:57:33;5.90;;;2.60;;
72408;SDS011;60402;48.082;11.628;2023-03-24T01:00:23;5.25;;;2.60;;
72408;SDS011;60402;48.082;11.628;2023-03-24T01:03:11;4.60;;;2.28;;
72408;SDS011;60402;48.082;11.628;2023-03-24T01:06:00;7.03;;;2.90;;
72408;SDS011;60402;48.082;11.628;2023-03-24T01:08:47;5.75;;;2.65;;
72408;SDS011;60402;48.082;11.628;2023-03-24T01:11:35;6.10;;;2.40;;
72408;SDS011;60402;48.082;11.628;2023-03-24T01:14:22;6.22;;;2.17;;
72408;SDS011;60402;48.082;11.628;2023-03-24T01:17:08;4.70;;;2.20;;
72408;SDS011;60402;48.082;11.628;2023-03-24T01:19:54;5.18;;;2.40;;
72408;SDS011;60402;48.082;11.628;2023-03-24T01:22:41;7.00;;;2.85;;
72408;SDS011;60402;48.082;11.628;2023-03-24T01:25:29;5.72;;;2.78;;
72408;SDS011;60402;48.082;11.628;2023-03-24T01:28:15;5.32;;;2.30;;
72408;SDS011;60402;48.082;11.628;2023-03-24T01:31:07;5.90;;;2.47;;
72408;SDS011;60402;48.082;11.628;2023-03-24T01:33:54;4.35;;;2.08;;
72408;SDS011;60402;48.082;11.628;2023-03-24T01:36:40;5.75;;;2.78;;
72408;SDS011;60402;48.082;11.628;2023-03-24T01:39:26;6.72;;;2.80;;
72408;SDS011;60402;48.082;11.628;2023-03-24T01:42:15;5.72;;;2.58;;
72408;SDS011;60402;48.082;11.628;2023-03-24T01:48:40;5.90;;;2.80;;
72408;SDS011;60402;48.082;11.628;2023-03-24T01:51:47;4.50;;;2.17;;
72408;SDS011;60402;48.082;11.628;2023-03-24T01:54:47;5.40;;;2.60;;
72408;SDS011;60402;48.082;11.628;2023-03-24T01:57:41;4.45;;;2.20;;
72408;SDS011;60402;48.082;11.628;2023-03-24T02:00:30;4.95;;;2.15;;
72408;SDS011;60402;48.082;11.628;2023-03-24T02:03:17;5.10;;;2.70;;
72408;SDS011;60402;48.082;11.628;2023-03-24T02:06:06;4.75;;;2.33;;
72408;SDS011;60402;48.082;11.628;2023-03-24T02:08:53;5.00;;;2.47;;
72408;SDS011;60402;48.082;11.628;2023-03-24T02:11:41;5.30;;;2.38;;
72408;SDS011;60402;48.082;11.628;2023-03-24T02:14:28;5.82;;;2.80;;
72408;SDS011;60402;48.082;11.628;2023-03-24T02:26:42;4.63;;;2.20;;
72408;SDS011;60402;48.082;11.628;2023-03-24T02:41:48;4.97;;;2.38;;
72408;SDS011;60402;48.082;11.628;2023-03-24T02:47:45;6.47;;;2.42;;
72408;SDS011;60402;48.082;11.628;2023-03-24T02:56:46;5.20;;;2.45;;
72408;SDS011;60402;48.082;11.628;2023-03-24T03:00:20;5.38;;;2.38;;
72408;SDS011;60402;48.082;11.628;2023-03-24T03:03:26;4.80;;;2.50;;
72408;SDS011;60402;48.082;11.628;2023-03-24T03:06:28;9.38;;;2.58;;
72408;SDS011;60402;48.082;11.628;2023-03-24T03:09:18;6.35;;;2.55;;
72408;SDS011;60402;48.082;11.628;2023-03-24T03:12:06;6.05;;;2.75;;
72408;SDS011;60402;48.082;11.628;2023-03-24T03:15:05;5.97;;;2.50;;
72408;SDS011;60402;48.082;11.628;2023-03-24T03:20:52;6.07;;;2.88;;
72408;SDS011;60402;48.082;11.628;2023-03-24T03:23:45;4.50;;;2.42;;
72408;SDS011;60402;48.082;11.628;2023-03-24T03:26:34;5.43;;;2.65;;
72408;SDS011;60402;48.082;11.628;2023-03-24T03:29:21;6.40;;;2.72;;
72408;SDS011;60402;48.082;11.628;2023-03-24T03:32:14;5.65;;;2.42;;
72408;SDS011;60402;48.082;11.628;2023-03-24T03:35:08;6.47;;;2.83;;
72408;SDS011;60402;48.082;11.628;2023-03-24T03:40:54;6.13;;;2.45;;
72408;SDS011;60402;48.082;11.628;2023-03-24T03:43:44;5.80;;;2.42;;
72408;SDS011;60402;48.082;11.628;2023-03-24T03:46:31;5.57;;;2.60;;
72408;SDS011;60402;48.082;11.628;2023-03-24T03:49:19;5.30;;;2.50;;
72408;SDS011;60402;48.082;11.628;2023-03-24T03:52:05;6.63;;;2.53;;
72408;SDS011;60402;48.082;11.628;2023-03-24T03:54:51;5.07;;;2.40;;
72408;SDS011;60402;48.082;11.628;2023-03-24T03:57:38;5.85;;;2.50;;
72408;SDS011;60402;48.082;11.628;2023-03-24T04:00:24;5.30;;;2.53;;
72408;SDS011;60402;48.082;11.628;2023-03-24T04:09:52;4.65;;;2.20;;
72408;SDS011;60402;48.082;11.628;2023-03-24T04:19:39;6.38;;;2.30;;
72408;SDS011;60402;48.082;11.628;2023-03-24T04:25:31;4.85;;;2.25;;
72408;SDS011;60402;48.082;11.628;2023-03-24T04:28:29;5.20;;;2.50;;
72408;SDS011;60402;48.082;11.628;2023-03-24T04:31:38;4.93;;;2.47;;
72408;SDS011;60402;48.082;11.628;2023-03-24T04:34:32;6.53;;;2.75;;
72408;SDS011;60402;48.082;11.628;2023-03-24T04:37:27;6.50;;;2.67;;
72408;SDS011;60402;48.082;11.628;2023-03-24T04:40:17;7.05;;;2.33;;
72408;SDS011;60402;48.082;11.628;2023-03-24T04:43:07;5.70;;;2.30;;
72408;SDS011;60402;48.082;11.628;2023-03-24T04:45:57;4.90;;;2.30;;
72408;SDS011;60402;48.082;11.628;2023-03-24T04:48:44;5.43;;;2.60;;
72408;SDS011;60402;48.082;11.628;2023-03-24T04:51:32;4.90;;;2.55;;
72408;SDS011;60402;48.082;11.628;2023-03-24T04:54:19;5.70;;;2.70;;
72408;SDS011;60402;48.082;11.628;2023-03-24T04:57:06;5.78;;;2.80;;
72408;SDS011;60402;48.082;11.628;2023-03-24T04:59:51;4.80;;;2.33;;
72408;SDS011;60402;48.082;11.628;2023-03-24T05:02:38;6.00;;;2.83;;
72408;SDS011;60402;48.082;11.628;2023-03-24T05:05:23;6.10;;;2.47;;
72408;SDS011;60402;48.082;11.628;2023-03-24T05:08:09;5.47;;;2.80;;
72408;SDS011;60402;48.082;11.628;2023-03-24T05:10:55;5.22;;;2.50;;
72408;SDS011;60402;48.082;11.628;2023-03-24T05:13:41;7.38;;;3.05;;
72408;SDS011;60402;48.082;11.628;2023-03-24T05:16:26;6.97;;;2.90;;
72408;SDS011;60402;48.082;11.628;2023-03-24T05:19:12;5.38;;;2.40;;
72408;SDS011;60402;48.082;11.628;2023-03-24T05:21:58;6.63;;;2.75;;
72408;SDS011;60402;48.082;11.628;2023-03-24T05:24:44;6.32;;;2.72;;
72408;SDS011;60402;48.082;11.628;2023-03-24T05:27:30;6.15;;;3.28;;
72408;SDS011;60402;48.082;11.628;2023-03-24T05:30:16;6.03;;;2.63;;
72408;SDS011;60402;48.082;11.628;2023-03-24T05:33:04;7.10;;;3.20;;
72408;SDS011;60402;48.082;11.628;2023-03-24T05:35:50;6.30;;;2.95;;
72408;SDS011;60402;48.082;11.628;2023-03-24T05:38:35;6.28;;;3.17;;
72408;SDS011;60402;48.082;11.628;2023-03-24T05:41:21;7.10;;;3.28;;
72408;SDS011;60402;48.082;11.628;2023-03-24T05:44:07;6.20;;;2.90;;
72408;SDS011;60402;48.082;11.628;2023-03-24T05:46:52;6.18;;;3.03;;
72408;SDS011;60402;48.082;11.628;2023-03-24T05:49:38;9.60;;;3.40;;
72408;SDS011;60402;48.082;11.628;2023-03-24T05:52:23;8.55;;;3.15;;
72408;SDS011;60402;48.082;11.628;2023-03-24T05:55:09;6.43;;;3.55;;
72408;SDS011;60402;48.082;11.628;2023-03-24T05:57:55;6.43;;;3.17;;
72408;SDS011;60402;48.082;11.628;2023-03-24T06:00:41;8.70;;;3.72;;
72408;SDS011;60402;48.082;11.628;2023-03-24T06:03:26;6.07;;;3.45;;
72408;SDS011;60402;48.082;11.628;2023-03-24T06:06:18;9.90;;;3.28;;
72408;SDS011;60402;48.082;11.628;2023-03-24T06:09:03;7.53;;;3.60;;
72408;SDS011;60402;48.082;11.628;2023-03-24T06:11:49;6.03;;;3.22;;
72408;SDS011;60402;48.082;11.628;2023-03-24T06:14:35;8.48;;;3.47;;
72408;SDS011;60402;48.082;11.628;2023-03-24T06:17:20;6.45;;;3.30;;
72408;SDS011;60402;48.082;11.628;2023-03-24T06:20:06;6.50;;;3.50;;
72408;SDS011;60402;48.082;11.628;2023-03-24T06:22:59;6.95;;;3.47;;
72408;SDS011;60402;48.082;11.628;2023-03-24T06:25:44;6.82;;;3.35;;
72408;SDS011;60402;48.082;11.628;2023-03-24T06:28:34;9.95;;;3.50;;
72408;SDS011;60402;48.082;11.628;2023-03-24T06:31:20;8.70;;;3.83;;
72408;SDS011;60402;48.082;11.628;2023-03-24T06:36:54;8.80;;;3.88;;
72408;SDS011;60402;48.082;11.628;2023-03-24T06:39:40;10.65;;;4.82;;
72408;SDS011;60402;48.082;11.628;2023-03-24T06:42:26;13.10;;;6.20;;
72408;SDS011;60402;48.082;11.628;2023-03-24T06:45:11;17.65;;;6.00;;
72408;SDS011;60402;48.082;11.628;2023-03-24T06:47:57;9.18;;;4.55;;
72408;SDS011;60402;48.082;11.628;2023-03-24T06:50:43;10.00;;;4.10;;
72408;SDS011;60402;48.082;11.628;2023-03-24T06:53:29;8.70;;;4.20;;
72408;SDS011;60402;48.082;11.628;2023-03-24T06:56:14;14.35;;;5.95;;
72408;SDS011;60402;48.082;11.628;2023-03-24T06:59:02;9.32;;;4.63;;
72408;SDS011;60402;48.082;11.628;2023-03-24T07:01:49;7.65;;;3.88;;
72408;SDS011;60402;48.082;11.628;2023-03-24T07:04:36;12.73;;;4.95;;
72408;SDS011;60402;48.082;11.628;2023-03-24T07:07:21;7.82;;;4.18;;
72408;SDS011;60402;48.082;11.628;2023-03-24T07:10:08;11.90;;;5.00;;
72408;SDS011;60402;48.082;11.628;2023-03-24T07:12:54;9.20;;;4.60;;
72408;SDS011;60402;48.082;11.628;2023-03-24T07:15:40;17.17;;;8.45;;
72408;SDS011;60402;48.082;11.628;2023-03-24T07:18:26;13.98;;;6.75;;
72408;SDS011;60402;48.082;11.628;2023-03-24T07:21:11;12.40;;;5.25;;
72408;SDS011;60402;48.082;11.628;2023-03-24T07:23:57;8.27;;;4.15;;
72408;SDS011;60402;48.082;11.628;2023-03-24T07:26:43;9.25;;;3.72;;
72408;SDS011;60402;48.082;11.628;2023-03-24T07:29:29;5.88;;;3.22;;
72408;SDS011;60402;48.082;11.628;2023-03-24T07:32:15;6.90;;;3.33;;
72408;SDS011;60402;48.082;11.628;2023-03-24T07:35:02;6.30;;;3.17;;
72408;SDS011;60402;48.082;11.628;2023-03-24T07:37:48;6.60;;;3.70;;
72408;SDS011;60402;48.082;11.628;2023-03-24T07:40:34;7.88;;;3.97;;
72408;SDS011;60402;48.082;11.628;2023-03-24T07:43:20;7.65;;;3.50;;
72408;SDS011;60402;48.082;11.628;2023-03-24T07:46:06;8.20;;;3.88;;
72408;SDS011;60402;48.082;11.628;2023-03-24T07:48:52;9.70;;;4.40;;
72408;SDS011;60402;48.082;11.628;2023-03-24T07:51:38;8.40;;;4.28;;
72408;SDS011;60402;48.082;11.628;2023-03-24T07:54:24;9.07;;;4.30;;
72408;SDS011;60402;48.082;11.628;2023-03-24T07:57:09;9.70;;;4.35;;
72408;SDS011;60402;48.082;11.628;2023-03-24T07:59:55;8.65;;;4.55;;
72408;SDS011;60402;48.082;11.628;2023-03-24T08:02:41;10.30;;;4.40;;
72408;SDS011;60402;48.082;11.628;2023-03-24T08:05:27;7.13;;;3.88;;
72408;SDS011;60402;48.082;11.628;2023-03-24T08:08:14;8.02;;;4.78;;
72408;SDS011;60402;48.082;11.628;2023-03-24T08:11:01;8.23;;;4.13;;
72408;SDS011;60402;48.082;11.628;2023-03-24T08:13:49;7.80;;;4.57;;
72408;SDS011;60402;48.082;11.628;2023-03-24T08:16:34;8.18;;;3.95;;
72408;SDS011;60402;48.082;11.628;2023-03-24T08:19:23;7.75;;;3.72;;
72408;SDS011;60402;48.082;11.628;2023-03-24T08:22:08;5.90;;;3.03;;
72408;SDS011;60402;48.082;11.628;2023-03-24T08:24:54;6.25;;;2.85;;
72408;SDS011;60402;48.082;11.628;2023-03-24T08:27:40;5.68;;;2.72;;
72408;SDS011;60402;48.082;11.628;2023-03-24T08:30:29;5.75;;;2.45;;
72408;SDS011;60402;48.082;11.628;2023-03-24T08:33:15;4.45;;;2.28;;
72408;SDS011;60402;48.082;11.628;2023-03-24T08:36:01;5.45;;;2.50;;
72408;SDS011;60402;48.082;11.628;2023-03-24T08:38:46;6.32;;;2.45;;
72408;SDS011;60402;48.082;11.628;2023-03-24T08:41:32;6.32;;;2.50;;
72408;SDS011;60402;48.082;11.628;2023-03-24T08:44:21;5.57;;;2.50;;
72408;SDS011;60402;48.082;11.628;2023-03-24T08:47:06;4.93;;;2.38;;
72408;SDS011;60402;48.082;11.628;2023-03-24T08:49:54;5.50;;;2.50;;
72408;SDS011;60402;48.082;11.628;2023-03-24T08:52:42;4.60;;;2.40;;
72408;SDS011;60402;48.082;11.628;2023-03-24T08:55:28;4.18;;;2.08;;
72408;SDS011;60402;48.082;11.628;2023-03-24T08:58:15;4.22;;;2.20;;
72408;SDS011;60402;48.082;11.628;2023-03-24T09:01:01;6.30;;;2.55;;
72408;SDS011;60402;48.082;11.628;2023-03-24T09:03:47;4.47;;;2.17;;
72408;SDS011;60402;48.082;11.628;2023-03-24T09:06:33;4.10;;;2.22;;
72408;SDS011;60402;48.082;11.628;2023-03-24T09:09:21;5.50;;;2.70;;
72408;SDS011;60402;48.082;11.628;2023-03-24T09:12:07;4.97;;;2.30;;
72408;SDS011;60402;48.082;11.628;2023-03-24T09:14:54;5.10;;;2.30;;
72408;SDS011;60402;48.082;11.628;2023-03-24T09:17:39;4.90;;;2.30;;
72408;SDS011;60402;48.082;11.628;2023-03-24T09:20:25;4.00;;;1.75;;
72408;SDS011;60402;48.082;11.628;2023-03-24T09:23:11;4.00;;;2.03;;
72408;SDS011;60402;48.082;11.628;2023-03-24T09:25:58;3.72;;;1.80;;
72408;SDS011;60402;48.082;11.628;2023-03-24T09:28:44;4.63;;;2.03;;
72408;SDS011;60402;48.082;11.628;2023-03-24T09:31:30;3.47;;;1.52;;
72408;SDS011;60402;48.082;11.628;2023-03-24T09:34:16;3.53;;;1.70;;
72408;SDS011;60402;48.082;11.628;2023-03-24T09:37:01;4.40;;;1.85;;
72408;SDS011;60402;48.082;11.628;2023-03-24T09:39:47;4.20;;;1.80;;
72408;SDS011;60402;48.082;11.628;2023-03-24T09:42:39;4.57;;;1.67;;
72408;SDS011;60402;48.082;11.628;2023-03-24T09:45:26;4.25;;;1.58;;
72408;SDS011;60402;48.082;11.628;2023-03-24T09:48:17;5.00;;;1.83;;
72408;SDS011;60402;48.082;11.628;2023-03-24T09:51:23;4.43;;;1.70;;
72408;SDS011;60402;48.082;11.628;2023-03-24T10:00:30;3.30;;;1.80;;
72408;SDS011;60402;48.082;11.628;2023-03-24T10:03:18;6.25;;;2.08;;
72408;SDS011;60402;48.082;11.628;2023-03-24T10:09:23;4.65;;;1.85;;
72408;SDS011;60402;48.082;11.628;2023-03-24T10:12:35;4.53;;;1.90;;
72408;SDS011;60402;48.082;11.628;2023-03-24T10:15:29;4.15;;;2.03;;
72408;SDS011;60402;48.082;11.628;2023-03-24T10:21:42;4.13;;;1.80;;
72408;SDS011;60402;48.082;11.628;2023-03-24T10:24:48;5.45;;;2.30;;
72408;SDS011;60402;48.082;11.628;2023-03-24T10:27:43;6.03;;;2.10;;
72408;SDS011;60402;48.082;11.628;2023-03-24T10:30:33;7.20;;;2.15;;
72408;SDS011;60402;48.082;11.628;2023-03-24T10:33:25;5.85;;;2.20;;
72408;SDS011;60402;48.082;11.628;2023-03-24T10:36:12;4.13;;;1.95;;
72408;SDS011;60402;48.082;11.628;2023-03-24T10:39:00;5.85;;;2.30;;
72408;SDS011;60402;48.082;11.628;2023-03-24T10:41:45;6.90;;;2.38;;
72408;SDS011;60402;48.082;11.628;2023-03-24T10:44:34;4.68;;;2.10;;
72408;SDS011;60402;48.082;11.628;2023-03-24T10:47:23;7.55;;;2.60;;
72408;SDS011;60402;48.082;11.628;2023-03-24T10:50:10;5.78;;;2.22;;
72408;SDS011;60402;48.082;11.628;2023-03-24T10:52:56;6.65;;;2.28;;
72408;SDS011;60402;48.082;11.628;2023-03-24T10:55:42;4.88;;;2.17;;
72408;SDS011;60402;48.082;11.628;2023-03-24T10:58:29;5.10;;;2.22;;
72408;SDS011;60402;48.082;11.628;2023-03-24T11:01:22;4.93;;;2.03;;
72408;SDS011;60402;48.082;11.628;2023-03-24T11:04:09;3.97;;;1.73;;
72408;SDS011;60402;48.082;11.628;2023-03-24T11:07:34;3.63;;;1.80;;
72408;SDS011;60402;48.082;11.628;2023-03-24T11:10:18;6.28;;;1.83;;
72408;SDS011;60402;48.082;11.628;2023-03-24T11:13:19;4.03;;;1.73;;
72408;SDS011;60402;48.082;11.628;2023-03-24T11:19:08;3.45;;;1.60;;
72408;SDS011;60402;48.082;11.628;2023-03-24T11:22:08;4.53;;;1.50;;
72408;SDS011;60402;48.082;11.628;2023-03-24T11:24:55;2.67;;;1.40;;
72408;SDS011;60402;48.082;11.628;2023-03-24T11:27:41;2.92;;;1.25;;
72408;SDS011;60402;48.082;11.628;2023-03-24T11:30:42;4.85;;;1.45;;
72408;SDS011;60402;48.082;11.628;2023-03-24T11:33:31;3.92;;;1.63;;
72408;SDS011;60402;48.082;11.628;2023-03-24T11:39:15;3.67;;;1.73;;
72408;SDS011;60402;48.082;11.628;2023-03-24T11:44:50;4.00;;;1.85;;
72408;SDS011;60402;48.082;11.628;2023-03-24T11:47:37;3.53;;;1.63;;
72408;SDS011;60402;48.082;11.628;2023-03-24T11:50:24;3.75;;;1.58;;
72408;SDS011;60402;48.082;11.628;2023-03-24T11:53:17;3.92;;;1.85;;
72408;SDS011;60402;48.082;11.628;2023-03-24T12:08:28;4.05;;;1.90;;
72408;SDS011;60402;48.082;11.628;2023-03-24T12:11:47;5.82;;;1.90;;
72408;SDS011;60402;48.082;11.628;2023-03-24T12:17:40;5.18;;;1.67;;
72408;SDS011;60402;48.082;11.628;2023-03-24T12:23:51;4.20;;;1.67;;
72408;SDS011;60402;48.082;11.628;2023-03-24T12:26:46;3.40;;;1.77;;
72408;SDS011;60402;48.082;11.628;2023-03-24T12:29:39;4.00;;;1.95;;
72408;SDS011;60402;48.082;11.628;2023-03-24T12:32:50;4.53;;;2.00;;
72408;SDS011;60402;48.082;11.628;2023-03-24T12:42:08;5.82;;;2.30;;
72408;SDS011;60402;48.082;11.628;2023-03-24T12:51:03;4.68;;;2.13;;
72408;SDS011;60402;48.082;11.628;2023-03-24T12:54:05;5.60;;;2.40;;
72408;SDS011;60402;48.082;11.628;2023-03-24T12:56:56;5.57;;;2.95;;
72408;SDS011;60402;48.082;11.628;2023-03-24T12:59:50;7.00;;;2.80;;
72408;SDS011;60402;48.082;11.628;2023-03-24T13:02:56;5.82;;;2.80;;
72408;SDS011;60402;48.082;11.628;2023-03-24T13:05:54;5.70;;;2.72;;
72408;SDS011;60402;48.082;11.628;2023-03-24T13:08:48;5.43;;;2.47;;
72408;SDS011;60402;48.082;11.628;2023-03-24T13:21:09;4.82;;;2.30;;
72408;SDS011;60402;48.082;11.628;2023-03-24T13:27:08;5.05;;;2.65;;
72408;SDS011;60402;48.082;11.628;2023-03-24T13:30:13;5.97;;;2.70;;
72408;SDS011;60402;48.082;11.628;2023-03-24T13:33:16;7.45;;;2.65;;
72408;SDS011;60402;48.082;11.628;2023-03-24T13:38:55;4.43;;;2.22;;
72408;SDS011;60402;48.082;11.628;2023-03-24T13:41:49;5.00;;;2.40;;
72408;SDS011;60402;48.082;11.628;2023-03-24T13:44:41;4.40;;;1.60;;
72408;SDS011;60402;48.082;11.628;2023-03-24T13:51:03;4.75;;;1.08;;
72408;SDS011;60402;48.082;11.628;2023-03-24T13:54:20;4.75;;;1.38;;
72408;SDS011;60402;48.082;11.628;2023-03-24T13:57:14;2.35;;;1.10;;
72408;SDS011;60402;48.082;11.628;2023-03-24T14:06:15;1.13;;;0.85;;
72408;SDS011;60402;48.082;11.628;2023-03-24T14:09:05;1.73;;;0.80;;
72408;SDS011;60402;48.082;11.628;2023-03-24T14:18:37;4.05;;;1.00;;
72408;SDS011;60402;48.082;11.628;2023-03-24T14:21:27;1.45;;;0.90;;
72408;SDS011;60402;48.082;11.628;2023-03-24T14:24:18;3.70;;;0.90;;
72408;SDS011;60402;48.082;11.628;2023-03-24T14:30:27;1.80;;;0.73;;
72408;SDS011;60402;48.082;11.628;2023-03-24T14:33:22;2.10;;;0.80;;
72408;SDS011;60402;48.082;11.628;2023-03-24T14:36:09;2.28;;;0.77;;
72408;SDS011;60402;48.082;11.628;2023-03-24T14:38:56;2.70;;;0.80;;
72408;SDS011;60402;48.082;11.628;2023-03-24T14:41:58;2.88;;;0.85;;
72408;SDS011;60402;48.082;11.628;2023-03-24T14:47:34;1.77;;;0.70;;
72408;SDS011;60402;48.082;11.628;2023-03-24T14:50:22;1.98;;;0.70;;
72408;SDS011;60402;48.082;11.628;2023-03-24T14:53:11;4.30;;;0.98;;
72408;SDS011;60402;48.082;11.628;2023-03-24T14:56:05;2.83;;;0.80;;
72408;SDS011;60402;48.082;11.628;2023-03-24T14:58:53;2.30;;;0.63;;
72408;SDS011;60402;48.082;11.628;2023-03-24T15:01:43;1.55;;;0.80;;
72408;SDS011;60402;48.082;11.628;2023-03-24T15:04:33;1.90;;;0.77;;
72408;SDS011;60402;48.082;11.628;2023-03-24T15:07:23;1.35;;;0.60;;
72408;SDS011;60402;48.082;11.628;2023-03-24T15:10:15;2.08;;;0.80;;
72408;SDS011;60402;48.082;11.628;2023-03-24T15:13:03;0.98;;;0.50;;
72408;SDS011;60402;48.082;11.628;2023-03-24T15:15:49;2.15;;;0.80;;
72408;SDS011;60402;48.082;11.628;2023-03-24T15:18:41;2.40;;;0.55;;
72408;SDS011;60402;48.082;11.628;2023-03-24T15:21:39;3.13;;;0.68;;
72408;SDS011;60402;48.082;11.628;2023-03-24T15:24:34;1.13;;;0.60;;
72408;SDS011;60402;48.082;11.628;2023-03-24T15:27:24;1.00;;;0.50;;
72408;SDS011;60402;48.082;11.628;2023-03-24T15:30:13;2.00;;;0.60;;
72408;SDS011;60402;48.082;11.628;2023-03-24T15:33:00;1.55;;;0.70;;
72408;SDS011;60402;48.082;11.628;2023-03-24T15:35:46;1.08;;;0.60;;
72408;SDS011;60402;48.082;11.628;2023-03-24T15:38:38;2.45;;;0.57;;
72408;SDS011;60402;48.082;11.628;2023-03-24T15:41:30;2.22;;;0.77;;
72408;SDS011;60402;48.082;11.628;2023-03-24T15:44:17;1.00;;;0.47;;
72408;SDS011;60402;48.082;11.628;2023-03-24T15:47:09;1.42;;;0.60;;
72408;SDS011;60402;48.082;11.628;2023-03-24T15:56:14;1.90;;;0.70;;
72408;SDS011;60402;48.082;11.628;2023-03-24T16:01:48;1.73;;;0.75;;
72408;SDS011;60402;48.082;11.628;2023-03-24T16:04:34;1.08;;;0.45;;
72408;SDS011;60402;48.082;11.628;2023-03-24T16:07:23;0.90;;;0.60;;
72408;SDS011;60402;48.082;11.628;2023-03-24T16:13:17;1.15;;;0.57;;
72408;SDS011;60402;48.082;11.628;2023-03-24T16:19:00;4.97;;;0.93;;
72408;SDS011;60402;48.082;11.628;2023-03-24T16:21:45;1.08;;;0.60;;
72408;SDS011;60402;48.082;11.628;2023-03-24T16:24:31;3.05;;;0.65;;
72408;SDS011;60402;48.082;11.628;2023-03-24T16:27:17;1.42;;;0.70;;
72408;SDS011;60402;48.082;11.628;2023-03-24T16:30:09;4.47;;;1.50;;
72408;SDS011;60402;48.082;11.628;2023-03-24T16:33:05;4.05;;;0.90;;
72408;SDS011;60402;48.082;11.628;2023-03-24T16:35:51;2.83;;;0.80;;
72408;SDS011;60402;48.082;11.628;2023-03-24T16:38:37;2.80;;;1.13;;
72408;SDS011;60402;48.082;11.628;2023-03-24T16:41:23;1.88;;;0.80;;
72408;SDS011;60402;48.082;11.628;2023-03-24T16:44:09;2.15;;;0.82;;
72408;SDS011;60402;48.082;11.628;2023-03-24T16:46:55;4.30;;;0.98;;
72408;SDS011;60402;48.082;11.628;2023-03-24T16:49:41;3.67;;;1.10;;
72408;SDS011;60402;48.082;11.628;2023-03-24T16:52:27;4.05;;;0.90;;
72408;SDS011;60402;48.082;11.628;2023-03-24T16:55:12;1.85;;;0.90;;
72408;SDS011;60402;48.082;11.628;2023-03-24T16:57:58;2.13;;;0.80;;
72408;SDS011;60402;48.082;11.628;2023-03-24T17:00:44;1.77;;;0.80;;
72408;SDS011;60402;48.082;11.628;2023-03-24T17:03:29;3.33;;;0.65;;
72408;SDS011;60402;48.082;11.628;2023-03-24T17:06:15;3.40;;;0.82;;
72408;SDS011;60402;48.082;11.628;2023-03-24T17:09:01;7.30;;;2.53;;
72408;SDS011;60402;48.082;11.628;2023-03-24T17:11:50;4.28;;;1.67;;
72408;SDS011;60402;48.082;11.628;2023-03-24T17:14:41;4.32;;;1.00;;
72408;SDS011;60402;48.082;11.628;2023-03-24T17:17:26;1.85;;;1.00;;
72408;SDS011;60402;48.082;11.628;2023-03-24T17:20:12;2.63;;;0.90;;
72408;SDS011;60402;48.082;11.628;2023-03-24T17:22:59;2.00;;;0.55;;
72408;SDS011;60402;48.082;11.628;2023-03-24T17:25:45;1.10;;;0.50;;
72408;SDS011;60402;48.082;11.628;2023-03-24T17:28:31;1.48;;;0.63;;
72408;SDS011;60402;48.082;11.628;2023-03-24T17:31:17;2.28;;;0.68;;
72408;SDS011;60402;48.082;11.628;2023-03-24T17:34:03;0.90;;;0.50;;
72408;SDS011;60402;48.082;11.628;2023-03-24T17:36:49;1.17;;;0.55;;
72408;SDS011;60402;48.082;11.628;2023-03-24T17:39:35;1.92;;;0.70;;
72408;SDS011;60402;48.082;11.628;2023-03-24T17:42:22;1.80;;;0.70;;
72408;SDS011;60402;48.082;11.628;2023-03-24T17:45:11;1.63;;;0.55;;
72408;SDS011;60402;48.082;11.628;2023-03-24T17:47:59;0.95;;;0.43;;
72408;SDS011;60402;48.082;11.628;2023-03-24T17:50:45;1.73;;;0.60;;
72408;SDS011;60402;48.082;11.628;2023-03-24T17:53:32;2.05;;;0.50;;
72408;SDS011;60402;48.082;11.628;2023-03-24T17:56:18;2.58;;;0.88;;
72408;SDS011;60402;48.082;11.628;2023-03-24T17:59:04;1.58;;;0.60;;
72408;SDS011;60402;48.082;11.628;2023-03-24T18:01:50;1.58;;;0.60;;
72408;SDS011;60402;48.082;11.628;2023-03-24T18:04:35;2.88;;;0.75;;
72408;SDS011;60402;48.082;11.628;2023-03-24T18:07:21;1.98;;;0.70;;
72408;SDS011;60402;48.082;11.628;2023-03-24T18:10:07;1.55;;;0.40;;
72408;SDS011;60402;48.082;11.628;2023-03-24T18:12:53;2.33;;;0.50;;
72408;SDS011;60402;48.082;11.628;2023-03-24T18:15:40;1.48;;;0.70;;
72408;SDS011;60402;48.082;11.628;2023-03-24T18:18:27;1.58;;;0.60;;
72408;SDS011;60402;48.082;11.628;2023-03-24T18:21:12;1.88;;;0.68;;
72408;SDS011;60402;48.082;11.628;2023-03-24T18:23:58;0.98;;;0.40;;
72408;SDS011;60402;48.082;11.628;2023-03-24T18:26:44;3.13;;;0.55;;
72408;SDS011;60402;48.082;11.628;2023-03-24T18:29:30;1.70;;;0.60;;
72408;SDS011;60402;48.082;11.628;2023-03-24T18:32:16;2.00;;;0.70;;
72408;SDS011;60402;48.082;11.628;2023-03-24T18:35:02;1.10;;;0.60;;
72408;SDS011;60402;48.082;11.628;2023-03-24T18:37:49;2.42;;;1.13;;
72408;SDS011;60402;48.082;11.628;2023-03-24T18:40:35;1.40;;;0.65;;
72408;SDS011;60402;48.082;11.628;2023-03-24T18:43:20;0.40;;;0.40;;
72408;SDS011;60402;48.082;11.628;2023-03-24T18:46:07;1.88;;;0.55;;
72408;SDS011;60402;48.082;11.628;2023-03-24T18:48:54;1.35;;;0.50;;
72408;SDS011;60402;48.082;11.628;2023-03-24T18:51:40;1.90;;;0.43;;
72408;SDS011;60402;48.082;11.628;2023-03-24T18:54:26;2.58;;;0.50;;
72408;SDS011;60402;48.082;11.628;2023-03-24T18:57:12;1.15;;;0.45;;
72408;SDS011;60402;48.082;11.628;2023-03-24T18:59:58;1.52;;;0.70;;
72408;SDS011;60402;48.082;11.628;2023-03-24T19:02:45;1.33;;;0.60;;
72408;SDS011;60402;48.082;11.628;2023-03-24T19:05:31;2.13;;;0.80;;
72408;SDS011;60402;48.082;11.628;2023-03-24T19:08:17;1.60;;;0.68;;
72408;SDS011;60402;48.082;11.628;2023-03-24T19:11:06;0.80;;;0.47;;
72408;SDS011;60402;48.082;11.628;2023-03-24T19:13:56;1.33;;;0.70;;
72408;SDS011;60402;48.082;11.628;2023-03-24T19:16:42;2.08;;;0.55;;
72408;SDS011;60402;48.082;11.628;2023-03-24T19:19:27;1.88;;;0.60;;
72408;SDS011;60402;48.082;11.628;2023-03-24T19:22:15;1.63;;;0.52;;
72408;SDS011;60402;48.082;11.628;2023-03-24T19:25:06;0.85;;;0.35;;
72408;SDS011;60402;48.082;11.628;2023-03-24T19:27:52;1.17;;;0.40;;